Terminal Aerodrome Forecast
Issued by NWS

Home | Current Version | Previous Version | Graphics & Text | Print | Product List | Glossary On
Versions: 1 2 3 4 5 6 7 8 9 10 11 12 13 14 15
000
FTUS43 KBIS 221700
TAFMOT
TAF
KMOT 221720Z 2218/2318 23020G28KT P6SM BKN060 OVC100
     FM230000 24014KT P6SM BKN050
     FM230800 28014KT P6SM SKC=

USA.gov is the U.S. government's official web portal to all federal, state and local government web resources and services.